Time;durP1;ratioP1;P1;durP2;ratioP2;P2;SDS_P1;SDS_P2;PMS_P1;PMS_P2;Temp;Humidity;BMP_temperature;BMP_pressure;BME280_temperature;BME280_humidity;BME280_pressure;Samples;Min_cycle;Max_cycle;Signal;HPM_P1;HPM_P2
2022/09/27 00:02:15;;;;;;;9.20;1.50;;;10.80;99.90;;;;;;6040517;23;20065;-86
2022/09/27 00:04:41;;;;;;;7.53;1.73;;;10.80;99.90;;;;;;6042884;23;20077;-86
2022/09/27 00:07:09;;;;;;;5.75;1.33;;;10.90;99.90;;;;;;6042210;23;20022;-86
2022/09/27 00:09:35;;;;;;;9.95;1.63;;;10.70;99.90;;;;;;6043240;23;20053;-86
2022/09/27 00:12:01;;;;;;;5.60;1.30;;;10.70;99.90;;;;;;6042790;23;20284;-86
2022/09/27 00:14:26;;;;;;;5.65;1.35;;;10.70;99.90;;;;;;6065914;23;20140;-86
2022/09/27 00:16:52;;;;;;;5.03;1.20;;;10.60;99.90;;;;;;6041826;23;20081;-86
2022/09/27 00:19:21;;;;;;;7.15;1.63;;;10.60;99.90;;;;;;6066914;23;20021;-86
2022/09/27 00:21:48;;;;;;;8.20;1.48;;;10.60;99.90;;;;;;6042757;23;20662;-86
2022/09/27 00:24:17;;;;;;;8.32;1.20;;;10.60;99.90;;;;;;6042282;23;20021;-86
2022/09/27 00:26:43;;;;;;;7.50;1.55;;;10.60;99.90;;;;;;6064184;23;20113;-86
2022/09/27 00:29:09;;;;;;;5.32;1.17;;;10.60;99.90;;;;;;6065631;23;20015;-85
2022/09/27 00:31:36;;;;;;;7.47;1.30;;;10.60;99.90;;;;;;6063518;23;20046;-86
2022/09/27 00:34:04;;;;;;;4.05;1.30;;;10.60;99.90;;;;;;6043661;23;20062;-86
2022/09/27 00:36:30;;;;;;;5.07;1.35;;;10.60;99.90;;;;;;6068406;23;20014;-86
2022/09/27 00:38:58;;;;;;;7.00;1.60;;;10.90;99.90;;;;;;6044940;23;20048;-86
2022/09/27 00:41:33;;;;;;;9.48;1.50;;;10.70;99.90;;;;;;6067858;23;20101;-86
2022/09/27 00:44:03;;;;;;;6.72;1.33;;;10.60;99.90;;;;;;6044351;23;20344;-86
2022/09/27 00:46:42;;;;;;;8.70;1.70;;;10.60;99.90;;;;;;6065040;23;20352;-86
2022/09/27 00:49:25;;;;;;;6.90;1.67;;;10.60;99.90;;;;;;6068115;23;20017;-85
2022/09/27 00:52:00;;;;;;;3.83;0.88;;;10.70;99.90;;;;;;6043379;23;20021;-86
2022/09/27 00:54:28;;;;;;;3.33;0.98;;;10.60;99.90;;;;;;6044307;23;20010;-86
2022/09/27 00:56:55;;;;;;;5.03;1.20;;;10.50;99.90;;;;;;6068273;23;20014;-86
2022/09/27 00:59:36;;;;;;;5.18;1.30;;;10.60;99.90;;;;;;6043928;23;20391;-86
2022/09/27 01:02:05;;;;;;;6.10;1.30;;;10.60;99.90;;;;;;6043781;23;20018;-86
2022/09/27 01:04:32;;;;;;;7.32;1.33;;;10.50;99.90;;;;;;6044327;23;20025;-86
2022/09/27 01:06:58;;;;;;;6.40;1.40;;;10.60;99.90;;;;;;6044854;23;20022;-86
2022/09/27 01:09:25;;;;;;;7.68;1.60;;;10.60;99.90;;;;;;6045192;23;20482;-85
2022/09/27 01:12:04;;;;;;;7.53;1.90;;;10.60;99.90;;;;;;6043836;23;20022;-86
2022/09/27 01:14:42;;;;;;;8.07;1.95;;;10.50;99.90;;;;;;6044299;23;20050;-86
2022/09/27 01:17:13;;;;;;;12.02;2.08;;;10.60;99.90;;;;;;6067685;23;20022;-86
2022/09/27 01:20:10;;;;;;;10.55;2.33;;;10.60;99.90;;;;;;6045227;23;20405;-86
2022/09/27 01:22:47;;;;;;;10.07;2.60;;;10.60;99.90;;;;;;6044992;23;20344;-86
2022/09/27 01:25:16;;;;;;;11.30;2.45;;;10.60;99.90;;;;;;6043669;23;20038;-86
2022/09/27 01:28:00;;;;;;;12.85;2.40;;;10.50;99.90;;;;;;6043748;23;20022;-86
2022/09/27 01:30:33;;;;;;;8.38;2.20;;;10.60;99.90;;;;;;6044010;23;20404;-86
2022/09/27 01:33:13;;;;;;;10.02;2.17;;;10.50;99.90;;;;;;6044708;23;20025;-85
2022/09/27 01:35:39;;;;;;;7.97;1.77;;;10.50;99.90;;;;;;6068840;23;20240;-86
2022/09/27 01:38:16;;;;;;;8.77;1.85;;;11.00;99.90;;;;;;6044659;23;20467;-86
2022/09/27 01:40:58;;;;;;;8.45;1.75;;;10.50;99.90;;;;;;6067872;23;20026;-86
2022/09/27 01:43:33;;;;;;;6.72;1.88;;;10.50;99.90;;;;;;6045289;23;20032;-86
2022/09/27 01:46:07;;;;;;;5.82;1.60;;;10.60;99.90;;;;;;6067775;23;20022;-86
2022/09/27 01:48:41;;;;;;;3.60;1.40;;;10.40;99.90;;;;;;6043765;23;20019;-86
2022/09/27 01:51:11;;;;;;;7.03;1.73;;;10.40;99.90;;;;;;6068037;23;20018;-86
2022/09/27 01:54:01;;;;;;;6.93;1.73;;;10.40;99.90;;;;;;6068724;23;20018;-85
2022/09/27 01:56:40;;;;;;;9.27;2.22;;;10.50;99.90;;;;;;6068121;23;20085;-87
2022/09/27 01:59:18;;;;;;;9.50;2.33;;;11.10;99.90;;;;;;6043734;23;20451;-86
2022/09/27 02:01:47;;;;;;;11.10;3.05;;;10.50;99.90;;;;;;6044470;23;20025;-86
2022/09/27 02:04:19;;;;;;;10.95;3.33;;;10.50;99.90;;;;;;6044770;23;20025;-86
2022/09/27 02:06:49;;;;;;;9.57;2.23;;;10.50;99.90;;;;;;6043865;23;20023;-87
2022/09/27 02:09:28;;;;;;;11.27;2.30;;;10.90;99.90;;;;;;6067147;23;20258;-87
2022/09/27 02:11:59;;;;;;;6.45;1.55;;;10.50;99.90;;;;;;6068109;23;20015;-87
2022/09/27 02:14:47;;;;;;;4.95;1.40;;;10.40;99.90;;;;;;6068148;23;20184;-86
2022/09/27 02:17:28;;;;;;;7.63;1.33;;;10.50;99.90;;;;;;6043939;23;20061;-87
2022/09/27 02:20:12;;;;;;;4.47;1.27;;;10.40;99.90;;;;;;6044093;23;20049;-87
2022/09/27 02:22:57;;;;;;;4.95;1.30;;;10.50;99.90;;;;;;6044559;23;20022;-87
2022/09/27 02:25:41;;;;;;;7.53;1.30;;;10.40;99.90;;;;;;6044167;23;20399;-87
2022/09/27 02:28:16;;;;;;;4.20;1.10;;;10.30;99.90;;;;;;6042827;23;20408;-87
2022/09/27 02:30:42;;;;;;;5.57;1.30;;;10.30;99.90;;;;;;6067881;23;20091;-88
2022/09/27 02:33:07;;;;;;;6.38;1.35;;;10.30;99.90;;;;;;6044240;23;20115;-87
2022/09/27 02:35:35;;;;;;;7.47;1.42;;;10.40;99.90;;;;;;6044052;23;20014;-86
2022/09/27 02:38:02;;;;;;;3.88;0.98;;;10.30;99.90;;;;;;6067735;23;20014;-86
2022/09/27 02:40:34;;;;;;;4.32;1.20;;;10.20;99.90;;;;;;6066298;23;20014;-86
2022/09/27 02:43:04;;;;;;;6.90;1.33;;;11.40;99.90;;;;;;6043576;23;20073;-86
2022/09/27 02:45:40;;;;;;;5.90;1.52;;;10.20;99.90;;;;;;6068619;23;20014;-87
2022/09/27 02:48:24;;;;;;;6.38;1.30;;;10.20;99.90;;;;;;6068030;23;20018;-86
2022/09/27 02:50:56;;;;;;;6.53;1.52;;;10.30;99.90;;;;;;6066957;23;20070;-87
2022/09/27 02:53:31;;;;;;;7.70;2.00;;;10.20;99.90;;;;;;6044471;23;20026;-86
2022/09/27 02:56:02;;;;;;;7.75;1.75;;;10.20;99.90;;;;;;6068156;23;20337;-87
2022/09/27 02:58:49;;;;;;;5.00;1.15;;;10.20;99.90;;;;;;6043023;23;20524;-86
2022/09/27 03:02:04;;;;;;;3.55;1.00;;;10.20;99.90;;;;;;6067204;23;20085;-86
2022/09/27 03:04:46;;;;;;;4.93;1.30;;;10.20;99.90;;;;;;5981741;23;20022;-88
2022/09/27 03:07:13;;;;;;;5.88;1.60;;;10.20;99.90;;;;;;6043141;23;20137;-86
2022/09/27 03:09:46;;;;;;;7.55;1.90;;;10.30;99.90;;;;;;6067019;23;20010;-87
2022/09/27 03:12:13;;;;;;;6.88;1.73;;;10.20;99.90;;;;;;6066328;23;20093;-86
2022/09/27 03:14:39;;;;;;;7.68;1.67;;;10.10;99.90;;;;;;6043036;23;20010;-87
2022/09/27 03:17:05;;;;;;;5.95;1.55;;;10.10;99.90;;;;;;6068243;23;20532;-87
2022/09/27 03:19:31;;;;;;;7.72;1.77;;;10.20;99.90;;;;;;6043781;23;20018;-88
2022/09/27 03:21:57;;;;;;;6.45;1.58;;;10.20;99.90;;;;;;6042071;23;20056;-88
2022/09/27 03:24:22;;;;;;;7.03;1.80;;;10.10;99.90;;;;;;6068525;23;20328;-87
2022/09/27 03:26:48;;;;;;;8.40;1.95;;;10.80;99.90;;;;;;6043710;23;20026;-87
2022/09/27 03:29:15;;;;;;;8.32;2.20;;;10.50;99.90;;;;;;6044041;23;20053;-87
2022/09/27 03:31:40;;;;;;;9.18;2.00;;;10.10;99.90;;;;;;6067072;23;20015;-88
2022/09/27 03:34:06;;;;;;;4.18;1.30;;;10.10;99.90;;;;;;6044406;23;20089;-86
2022/09/27 03:36:32;;;;;;;8.30;1.42;;;10.50;99.90;;;;;;6044233;23;20042;-87
2022/09/27 03:38:57;;;;;;;5.75;1.58;;;10.00;99.90;;;;;;6044653;23;20077;-86
2022/09/27 03:41:23;;;;;;;9.35;2.00;;;10.00;99.90;;;;;;6043068;23;20498;-86
2022/09/27 03:43:49;;;;;;;6.93;1.77;;;10.00;99.90;;;;;;6043860;23;20010;-88
2022/09/27 03:46:15;;;;;;;7.22;1.88;;;10.00;99.90;;;;;;6043057;23;20010;-88
2022/09/27 03:48:41;;;;;;;4.60;1.40;;;10.00;99.90;;;;;;6044357;23;20018;-88
2022/09/27 03:51:07;;;;;;;6.07;1.85;;;10.10;99.90;;;;;;6043207;23;20014;-88
2022/09/27 03:53:33;;;;;;;6.78;1.75;;;10.00;99.90;;;;;;6044286;23;20014;-87
2022/09/27 03:55:59;;;;;;;8.25;2.08;;;10.00;99.90;;;;;;6044196;23;20014;-87
2022/09/27 03:58:25;;;;;;;9.95;2.60;;;10.00;99.90;;;;;;6067852;23;20053;-87
2022/09/27 04:00:51;;;;;;;9.15;2.20;;;10.00;99.90;;;;;;6043307;23;20026;-87
2022/09/27 04:03:18;;;;;;;9.57;2.80;;;10.00;99.90;;;;;;6043954;23;20019;-87
2022/09/27 04:05:44;;;;;;;8.18;2.30;;;9.90;99.90;;;;;;6043515;23;20025;-88
2022/09/27 04:08:10;;;;;;;8.10;2.13;;;9.90;99.90;;;;;;6045228;23;20033;-88
2022/09/27 04:10:36;;;;;;;8.23;2.40;;;9.90;99.90;;;;;;6045732;23;20018;-88
2022/09/27 04:13:03;;;;;;;8.00;2.13;;;9.90;99.90;;;;;;6045040;23;20053;-87
2022/09/27 04:15:28;;;;;;;8.05;2.20;;;11.40;99.90;;;;;;6045694;23;20133;-89
2022/09/27 04:17:54;;;;;;;8.50;2.03;;;9.90;99.90;;;;;;6070135;23;20018;-88
2022/09/27 04:20:20;;;;;;;8.55;1.80;;;9.90;99.90;;;;;;6045651;23;20014;-87
2022/09/27 04:22:45;;;;;;;5.75;1.55;;;9.90;99.90;;;;;;6044878;23;20010;-88
2022/09/27 04:25:12;;;;;;;7.85;1.85;;;10.00;99.90;;;;;;6044474;23;20085;-87
2022/09/27 04:27:42;;;;;;;7.15;1.50;;;10.00;99.90;;;;;;6068136;23;20455;-87
2022/09/27 04:30:12;;;;;;;7.95;1.75;;;10.00;99.90;;;;;;6068034;23;20523;-87
2022/09/27 04:32:44;;;;;;;6.47;1.25;;;9.90;99.90;;;;;;6068230;23;20023;-88
2022/09/27 04:37:55;;;;;;;7.60;1.83;;;9.90;99.90;;;;;;6049157;23;20022;-87
2022/09/27 04:40:22;;;;;;;4.93;1.40;;;9.90;99.90;;;;;;6044633;23;20018;-87
2022/09/27 04:42:49;;;;;;;6.43;1.50;;;9.90;99.90;;;;;;6045950;23;20053;-88
2022/09/27 04:45:14;;;;;;;6.60;1.60;;;9.90;99.90;;;;;;6043148;23;20026;-87
2022/09/27 04:47:44;;;;;;;6.85;1.48;;;9.90;99.90;;;;;;6068826;23;20018;-87
2022/09/27 04:50:10;;;;;;;7.47;1.60;;;9.90;99.90;;;;;;6042788;23;20050;-87
2022/09/27 04:52:36;;;;;;;7.80;1.70;;;9.90;99.90;;;;;;6043540;23;20476;-87
2022/09/27 04:55:03;;;;;;;5.55;1.40;;;9.90;99.90;;;;;;6068342;23;20038;-87
2022/09/27 04:57:28;;;;;;;6.05;1.33;;;9.90;99.90;;;;;;6067799;23;20041;-87
2022/09/27 04:59:54;;;;;;;6.07;1.60;;;10.10;99.90;;;;;;6069082;23;20019;-87
2022/09/27 05:02:20;;;;;;;8.13;1.40;;;9.90;99.90;;;;;;6043585;23;20024;-88
2022/09/27 05:04:45;;;;;;;6.57;1.50;;;10.00;99.90;;;;;;6044755;23;20025;-89
2022/09/27 05:07:11;;;;;;;7.07;1.60;;;9.90;99.90;;;;;;6043973;23;20022;-88
2022/09/27 05:09:37;;;;;;;5.80;1.50;;;9.90;99.90;;;;;;6042640;23;20018;-87
2022/09/27 05:12:04;;;;;;;5.40;1.30;;;9.90;99.90;;;;;;6044349;23;20018;-88
2022/09/27 05:14:29;;;;;;;6.57;1.33;;;9.80;99.90;;;;;;6042733;23;20085;-87
2022/09/27 05:16:55;;;;;;;6.38;1.38;;;9.90;99.90;;;;;;6042835;23;20444;-89
2022/09/27 05:19:21;;;;;;;6.68;1.73;;;9.90;99.90;;;;;;6065198;23;20240;-88
2022/09/27 05:21:46;;;;;;;6.40;1.33;;;9.90;99.90;;;;;;6066261;23;20018;-87
2022/09/27 05:24:12;;;;;;;5.47;1.25;;;9.90;99.90;;;;;;6043758;23;20053;-87
2022/09/27 05:26:38;;;;;;;5.13;1.40;;;9.90;99.90;;;;;;6044115;23;20449;-87
2022/09/27 05:29:03;;;;;;;7.18;1.30;;;9.80;99.90;;;;;;6042597;23;20062;-86
2022/09/27 05:31:29;;;;;;;4.30;1.25;;;10.80;99.90;;;;;;6043255;23;20018;-86
2022/09/27 05:33:55;;;;;;;7.63;1.35;;;9.80;99.90;;;;;;6044341;23;20034;-85
2022/09/27 05:36:22;;;;;;;4.53;1.27;;;9.80;99.90;;;;;;6019637;23;20774;-86
2022/09/27 05:38:48;;;;;;;6.35;1.30;;;10.00;99.90;;;;;;6067828;23;20214;-85
2022/09/27 05:41:14;;;;;;;6.47;1.65;;;9.70;99.90;;;;;;6043145;23;20014;-87
2022/09/27 05:43:40;;;;;;;7.45;1.45;;;9.70;99.90;;;;;;6042942;23;20109;-85
2022/09/27 05:46:06;;;;;;;5.38;1.20;;;9.70;99.90;;;;;;6042794;23;20018;-86
2022/09/27 05:48:32;;;;;;;6.00;1.73;;;9.70;99.90;;;;;;6043065;23;20453;-86
2022/09/27 05:50:58;;;;;;;7.80;1.42;;;9.70;99.90;;;;;;6020378;23;20045;-86
2022/09/27 05:53:24;;;;;;;4.85;1.58;;;10.80;99.90;;;;;;6067708;23;20027;-87
2022/09/27 05:55:50;;;;;;;6.28;1.30;;;9.80;99.90;;;;;;6067880;23;20025;-87
2022/09/27 05:58:15;;;;;;;8.93;1.60;;;9.70;99.90;;;;;;6020759;23;20033;-87
2022/09/27 06:00:42;;;;;;;9.80;1.70;;;9.70;99.90;;;;;;6020574;23;20456;-87
2022/09/27 06:03:11;;;;;;;5.55;1.40;;;9.80;99.90;;;;;;6043322;23;20410;-87
2022/09/27 06:05:38;;;;;;;9.07;1.60;;;10.30;99.90;;;;;;6044012;23;20018;-87
2022/09/27 06:08:10;;;;;;;5.13;1.30;;;9.80;99.90;;;;;;6044277;23;20432;-87
2022/09/27 06:10:37;;;;;;;4.82;1.30;;;9.80;99.90;;;;;;6044829;23;20401;-87
2022/09/27 06:13:10;;;;;;;10.13;1.80;;;9.90;99.90;;;;;;6064813;23;20019;-86
2022/09/27 06:15:38;;;;;;;8.80;1.83;;;9.90;99.90;;;;;;6035021;23;20015;-87
2022/09/27 06:18:09;;;;;;;8.68;1.92;;;9.90;99.90;;;;;;6043110;23;20006;-92
2022/09/27 06:20:35;;;;;;;7.70;1.50;;;9.90;99.90;;;;;;6044248;23;20440;-89
2022/09/27 06:23:17;;;;;;;6.97;1.42;;;9.90;99.90;;;;;;6068241;23;20022;-91
2022/09/27 06:25:43;;;;;;;8.38;1.88;;;9.90;99.90;;;;;;6044101;23;20054;-91
2022/09/27 06:28:09;;;;;;;5.53;1.48;;;9.90;99.90;;;;;;6043218;23;20047;-93
2022/09/27 06:30:44;;;;;;;5.30;1.33;;;9.90;99.90;;;;;;6041417;23;20380;-91
2022/09/27 06:33:13;;;;;;;5.20;1.30;;;9.90;99.90;;;;;;6043469;23;20026;-92
2022/09/27 06:35:39;;;;;;;7.03;1.30;;;10.00;99.90;;;;;;6041843;23;20066;-91
2022/09/27 06:38:08;;;;;;;5.22;1.25;;;9.80;99.90;;;;;;6043179;23;20018;-90
2022/09/27 06:40:34;;;;;;;6.47;1.40;;;9.90;99.90;;;;;;6038550;23;20089;-90
2022/09/27 06:43:10;;;;;;;6.05;1.70;;;9.90;99.90;;;;;;6038754;23;20026;-89
2022/09/27 06:45:38;;;;;;;8.20;1.60;;;9.90;99.90;;;;;;6044090;23;20344;-92
2022/09/27 06:48:06;;;;;;;4.95;1.27;;;9.90;99.90;;;;;;6045569;23;20026;-91
2022/09/27 06:50:37;;;;;;;9.52;2.00;;;11.40;99.90;;;;;;6065388;23;20018;-94
2022/09/27 06:53:04;;;;;;;7.95;1.90;;;11.10;99.90;;;;;;6066196;23;20025;-91
2022/09/27 06:55:30;;;;;;;7.55;1.83;;;11.40;99.90;;;;;;6038425;23;20455;-87
2022/09/27 07:00:47;;;;;;;6.60;1.70;;;10.10;99.90;;;;;;6064266;23;20455;-87
2022/09/27 07:03:13;;;;;;;6.28;2.05;;;10.10;99.90;;;;;;6065112;23;20022;-87
2022/09/27 07:05:43;;;;;;;9.18;2.40;;;10.20;99.90;;;;;;6063160;23;20049;-89
2022/09/27 07:08:12;;;;;;;7.93;1.80;;;10.10;99.90;;;;;;6041659;23;20340;-88
2022/09/27 07:10:39;;;;;;;9.98;2.08;;;10.00;99.90;;;;;;6042332;23;20026;-89
2022/09/27 07:13:09;;;;;;;7.63;1.90;;;10.20;99.90;;;;;;6040440;23;20021;-89
2022/09/27 07:15:36;;;;;;;6.25;1.70;;;10.10;99.90;;;;;;6064690;23;20018;-89
2022/09/27 07:18:03;;;;;;;5.90;1.60;;;10.10;99.90;;;;;;6064772;23;20054;-90
2022/09/27 07:20:29;;;;;;;6.28;1.60;;;9.40;99.90;;;;;;6042121;23;20533;-87
2022/09/27 07:22:55;;;;;;;5.88;1.50;;;10.10;99.90;;;;;;6018824;23;20460;-90
2022/09/27 07:25:21;;;;;;;8.15;1.80;;;10.20;99.90;;;;;;6042224;23;20090;-87
2022/09/27 07:27:47;;;;;;;8.30;1.77;;;10.20;99.90;;;;;;6067237;23;20364;-87
2022/09/27 07:30:13;;;;;;;7.45;1.90;;;10.20;99.90;;;;;;6042113;23;20023;-88
2022/09/27 07:32:39;;;;;;;7.85;2.05;;;10.30;99.90;;;;;;6039802;23;20479;-89
2022/09/27 07:35:07;;;;;;;7.85;2.30;;;10.30;99.90;;;;;;6042660;23;20014;-91
2022/09/27 07:37:34;;;;;;;9.55;2.10;;;10.40;99.90;;;;;;6067725;23;20059;-87
2022/09/27 07:40:01;;;;;;;8.20;2.00;;;11.70;99.90;;;;;;6041736;23;20408;-86
2022/09/27 07:42:28;;;;;;;6.45;1.80;;;10.40;99.90;;;;;;6041874;23;20270;-85
2022/09/27 07:44:57;;;;;;;8.60;1.80;;;10.50;99.90;;;;;;6067381;23;20507;-89
2022/09/27 07:47:24;;;;;;;8.77;1.77;;;10.50;99.90;;;;;;6041195;23;20022;-90
2022/09/27 07:49:51;;;;;;;6.75;1.50;;;10.60;99.90;;;;;;6066133;23;20018;-88
2022/09/27 07:52:18;;;;;;;4.82;1.40;;;10.60;99.90;;;;;;6065972;23;20093;-90
2022/09/27 07:54:45;;;;;;;6.60;1.52;;;10.70;99.90;;;;;;6040670;23;20026;-88
2022/09/27 07:57:11;;;;;;;9.40;1.98;;;10.80;99.90;;;;;;6039901;23;20104;-88
2022/09/27 07:59:37;;;;;;;7.93;1.67;;;10.90;99.90;;;;;;6065922;23;20026;-88
2022/09/27 08:02:03;;;;;;;9.05;1.70;;;10.80;99.90;;;;;;6043429;23;20014;-87
2022/09/27 08:04:28;;;;;;;9.07;1.85;;;10.90;99.90;;;;;;6043207;23;20277;-93
2022/09/27 08:06:57;;;;;;;8.68;1.67;;;11.00;99.90;;;;;;6042147;23;20018;-88
2022/09/27 08:09:25;;;;;;;6.32;1.52;;;11.30;99.90;;;;;;6041838;23;20440;-93
2022/09/27 08:11:54;;;;;;;7.07;1.42;;;11.10;99.90;;;;;;6066928;23;20022;-93
2022/09/27 08:14:22;;;;;;;8.00;1.83;;;11.10;99.90;;;;;;6041488;23;20333;-88
2022/09/27 08:16:48;;;;;;;7.18;1.60;;;12.30;99.90;;;;;;6041931;23;20459;-90
2022/09/27 08:19:14;;;;;;;4.70;1.40;;;11.10;99.90;;;;;;6067490;23;20014;-90
2022/09/27 08:21:40;;;;;;;5.30;1.45;;;;;;;;;;6044096;23;20022;-89
2022/09/27 08:24:09;;;;;;;5.60;1.40;;;11.10;99.90;;;;;;6067374;23;20021;-89
2022/09/27 08:27:25;;;;;;;3.88;1.40;;;11.10;99.90;;;;;;6040322;23;20166;-90
2022/09/27 08:30:02;;;;;;;5.53;1.40;;;;;;;;;;6068422;23;20033;-90
2022/09/27 08:32:29;;;;;;;4.80;1.25;;;11.10;99.90;;;;;;6064591;23;20023;-91
2022/09/27 08:34:58;;;;;;;4.75;1.33;;;11.10;99.90;;;;;;6042034;23;20371;-90
2022/09/27 08:37:24;;;;;;;6.40;1.38;;;;;;;;;;6064911;23;20021;-88
2022/09/27 08:39:49;;;;;;;5.40;1.30;;;11.20;99.90;;;;;;6066370;23;20355;-89
2022/09/27 08:42:26;;;;;;;7.63;1.58;;;11.20;99.90;;;;;;6019448;23;20056;-89
2022/09/27 08:45:16;;;;;;;4.00;1.20;;;11.20;99.90;;;;;;6042900;23;20011;-92
2022/09/27 08:47:47;;;;;;;3.20;0.90;;;11.30;99.90;;;;;;6041860;23;20018;-90
2022/09/27 08:50:33;;;;;;;4.80;1.20;;;11.30;99.90;;;;;;6041343;23;20021;-89
2022/09/27 08:53:21;;;;;;;2.83;1.13;;;11.30;99.90;;;;;;6064429;23;20018;-88
2022/09/27 08:55:52;;;;;;;2.70;0.95;;;11.30;99.90;;;;;;6066590;23;20471;-89
2022/09/27 08:58:28;;;;;;;5.72;1.33;;;11.40;99.90;;;;;;6066244;23;20014;-88
2022/09/27 09:01:05;;;;;;;4.68;1.10;;;11.50;99.90;;;;;;6043094;23;20101;-92
2022/09/27 09:03:37;;;;;;;3.97;1.13;;;11.50;99.90;;;;;;6067705;23;20018;-92
2022/09/27 09:06:28;;;;;;;4.13;1.20;;;11.60;99.90;;;;;;6092017;23;20015;-88
2022/09/27 09:09:20;;;;;;;1.95;0.98;;;11.70;99.90;;;;;;6042378;23;20018;-86
2022/09/27 09:15:06;;;;;;;5.03;1.10;;;11.90;99.90;;;;;;6066815;23;20018;-91
2022/09/27 09:18:40;;;;;;;6.47;1.13;;;11.80;99.90;;;;;;6044804;23;20066;-92
2022/09/27 09:21:36;;;;;;;3.47;1.10;;;11.70;99.90;;;;;;5904603;24;20016;-92
2022/09/27 09:24:15;;;;;;;6.13;1.13;;;11.60;99.90;;;;;;5929112;24;20020;-94
2022/09/27 09:26:50;;;;;;;5.03;1.30;;;11.60;99.90;;;;;;6016706;23;20015;-91
2022/09/27 09:29:24;;;;;;;8.55;1.50;;;11.60;99.90;;;;;;6043052;23;20054;-94
2022/09/27 09:32:18;;;;;;;4.18;1.20;;;11.70;99.90;;;;;;6043487;23;20025;-91
2022/09/27 09:34:50;;;;;;;5.22;1.30;;;11.80;99.90;;;;;;6068700;23;20011;-91
2022/09/27 09:37:32;;;;;;;5.25;1.40;;;11.80;99.90;;;;;;6042439;23;20015;-91
2022/09/27 09:40:22;;;;;;;7.68;1.40;;;11.80;99.90;;;;;;6043255;23;20014;-90
2022/09/27 09:43:04;;;;;;;5.00;1.20;;;11.70;99.90;;;;;;6044362;23;20022;-91
2022/09/27 09:45:34;;;;;;;5.70;1.20;;;11.80;99.90;;;;;;6069330;23;20018;-90
2022/09/27 09:48:23;;;;;;;6.75;1.50;;;11.80;99.90;;;;;;6068080;23;20026;-92
2022/09/27 09:50:53;;;;;;;5.35;1.30;;;11.70;99.90;;;;;;6043034;23;20411;-92
2022/09/27 09:53:28;;;;;;;5.47;1.17;;;11.60;99.90;;;;;;6042838;23;20037;-92
2022/09/27 09:56:09;;;;;;;7.13;1.38;;;11.50;99.90;;;;;;6042856;23;20017;-91
2022/09/27 09:58:53;;;;;;;7.07;1.30;;;11.40;99.90;;;;;;6066331;23;20528;-88
2022/09/27 10:01:43;;;;;;;4.03;1.08;;;11.40;99.90;;;;;;6066284;23;20022;-91
2022/09/27 10:04:17;;;;;;;2.97;1.13;;;11.30;99.90;;;;;;6064801;23;20019;-89
2022/09/27 10:06:42;;;;;;;3.47;0.98;;;11.20;99.90;;;;;;6064664;23;20731;-92
2022/09/27 10:09:13;;;;;;;4.25;1.13;;;11.20;99.90;;;;;;6065317;23;20018;-87
2022/09/27 10:11:42;;;;;;;3.15;1.00;;;11.30;99.90;;;;;;6039733;23;20437;-90
2022/09/27 10:14:11;;;;;;;5.40;1.02;;;11.30;99.90;;;;;;6067113;23;20082;-89
2022/09/27 10:16:41;;;;;;;5.43;1.40;;;11.90;99.90;;;;;;6041696;23;20341;-89
2022/09/27 10:19:08;;;;;;;4.53;1.10;;;11.40;99.90;;;;;;6041817;23;20146;-85
2022/09/27 10:21:41;;;;;;;2.80;1.00;;;11.40;99.90;;;;;;6040671;23;20017;-85
2022/09/27 10:24:13;;;;;;;4.10;1.20;;;11.40;99.90;;;;;;6064692;23;20014;-88
2022/09/27 10:26:42;;;;;;;4.32;1.00;;;11.40;99.90;;;;;;6066060;23;20015;-85
2022/09/27 10:29:31;;;;;;;3.08;1.15;;;11.40;99.90;;;;;;6067395;23;20022;-86
2022/09/27 10:31:59;;;;;;;2.25;0.90;;;11.40;99.90;;;;;;6041067;23;20026;-86
2022/09/27 10:34:28;;;;;;;5.78;1.30;;;11.40;99.90;;;;;;6041901;23;20089;-86
2022/09/27 10:37:04;;;;;;;4.70;1.38;;;11.40;99.90;;;;;;6037023;23;20014;-85
2022/09/27 10:39:30;;;;;;;3.00;1.05;;;11.40;99.90;;;;;;6040477;23;20014;-85
2022/09/27 10:41:56;;;;;;;3.72;1.00;;;11.40;99.90;;;;;;6041545;23;20025;-85
2022/09/27 10:44:28;;;;;;;5.60;1.40;;;11.50;99.90;;;;;;6038601;23;20400;-86
2022/09/27 10:46:58;;;;;;;3.37;1.20;;;11.50;99.90;;;;;;6041157;23;20393;-83
2022/09/27 10:49:28;;;;;;;5.47;1.50;;;11.50;99.90;;;;;;6089211;23;20465;-85
2022/09/27 10:52:07;;;;;;;6.35;1.70;;;11.60;99.90;;;;;;6062538;23;20030;-85
2022/09/27 10:54:36;;;;;;;5.13;1.58;;;11.60;99.90;;;;;;6063224;23;20010;-88
2022/09/27 10:57:18;;;;;;;5.32;1.50;;;11.70;99.90;;;;;;6041467;23;20065;-88
2022/09/27 10:59:51;;;;;;;3.22;1.10;;;11.80;99.90;;;;;;6065706;23;20014;-87
2022/09/27 11:02:21;;;;;;;3.65;1.02;;;12.10;99.90;;;;;;6039540;23;20046;-87
2022/09/27 11:05:12;;;;;;;3.25;1.17;;;12.00;99.90;;;;;;6064276;23;20026;-87
2022/09/27 11:07:49;;;;;;;5.43;1.30;;;12.30;99.90;;;;;;6065106;23;20392;-90
2022/09/27 11:10:33;;;;;;;2.45;0.95;;;12.40;99.90;;;;;;6064347;23;20018;-88
2022/09/27 11:13:07;;;;;;;4.38;1.15;;;12.50;99.90;;;;;;6042646;23;20080;-87
2022/09/27 11:15:54;;;;;;;5.60;1.30;;;12.70;99.90;;;;;;6041288;23;20017;-87
2022/09/27 11:18:47;;;;;;;3.70;0.88;;;12.80;99.90;;;;;;6040772;23;20073;-87
2022/09/27 11:21:25;;;;;;;5.93;1.17;;;12.80;99.90;;;;;;6066982;23;20022;-87
2022/09/27 11:24:15;;;;;;;2.47;0.75;;;12.70;99.90;;;;;;6066229;23;20444;-87
2022/09/27 11:27:33;;;;;;;2.13;0.60;;;12.60;99.90;;;;;;6042262;23;20018;-87
2022/09/27 11:30:18;;;;;;;3.03;0.80;;;12.40;99.90;;;;;;5902110;24;20077;-86
2022/09/27 11:32:56;;;;;;;4.18;0.85;;;12.30;99.90;;;;;;5947681;24;20049;-87
2022/09/27 11:35:46;;;;;;;3.47;0.80;;;12.20;99.90;;;;;;6041214;23;20105;-87
2022/09/27 11:38:23;;;;;;;2.75;0.80;;;12.00;99.90;;;;;;6064056;23;20367;-88
2022/09/27 11:41:00;;;;;;;3.25;1.00;;;12.00;99.90;;;;;;6041679;23;20046;-88
2022/09/27 11:43:47;;;;;;;3.53;0.75;;;11.90;99.90;;;;;;6043501;23;20093;-87
2022/09/27 11:46:19;;;;;;;3.60;0.80;;;13.10;99.90;;;;;;6065663;23;20215;-86
2022/09/27 11:49:02;;;;;;;2.42;0.73;;;11.80;99.90;;;;;;6043049;23;20349;-85
2022/09/27 11:51:33;;;;;;;;;;;11.70;99.90;;;;;;6066726;23;20022;-87
2022/09/27 11:54:44;;;;;;;1.92;0.52;;;11.60;99.90;;;;;;6065780;23;20378;-87
2022/09/27 11:57:32;;;;;;;2.95;0.88;;;11.70;99.90;;;;;;6005767;23;20065;-86
2022/09/27 12:00:17;;;;;;;3.55;0.93;;;11.70;99.90;;;;;;6042626;23;20014;-89
2022/09/27 12:03:24;;;;;;;3.78;0.95;;;11.80;99.90;;;;;;6042916;23;20065;-89
2022/09/27 12:06:07;;;;;;;3.03;0.95;;;12.00;99.90;;;;;;6065087;23;20018;-88
2022/09/27 12:08:49;;;;;;;3.55;1.00;;;12.20;99.90;;;;;;6044279;23;20182;-86
2022/09/27 12:11:27;;;;;;;3.60;1.00;;;12.30;99.90;;;;;;6043862;23;20029;-89
2022/09/27 12:14:24;;;;;;;1.65;0.68;;;12.30;99.90;;;;;;6094502;23;20014;-89
2022/09/27 12:16:56;;;;;;;0.70;0.47;;;12.00;99.90;;;;;;6024674;23;20033;-88
2022/09/27 12:19:27;;;;;;;0.25;0.25;;;11.80;99.90;;;;;;6064749;23;20646;-91
2022/09/27 12:21:59;;;;;;;0.30;0.30;;;11.60;99.90;;;;;;6041469;23;20360;-90
2022/09/27 12:24:26;;;;;;;0.77;0.28;;;12.10;99.90;;;;;;6044827;23;20022;-89
2022/09/27 12:26:56;;;;;;;0.43;0.40;;;11.60;99.90;;;;;;6064540;23;20029;-89
2022/09/27 12:29:35;;;;;;;1.20;0.47;;;11.80;99.90;;;;;;6090304;23;20462;-89
2022/09/27 12:32:28;;;;;;;0.25;0.25;;;12.00;99.90;;;;;;6068142;23;20098;-89
2022/09/27 12:35:13;;;;;;;;;;;;;;;;;;;;;
2022/09/27 12:37:52;;;;;;;0.55;0.28;;;;;;;;;;6093177;23;20017;-89
2022/09/27 12:40:26;;;;;;;0.52;0.52;;;12.20;99.90;;;;;;6069681;23;20049;-89
2022/09/27 12:42:57;;;;;;;0.98;0.45;;;;;;;;;;6045653;23;20471;-89
2022/09/27 12:46:17;;;;;;;1.00;0.50;;;12.10;99.90;;;;;;6069491;23;20018;-89
2022/09/27 12:49:25;;;;;;;0.35;0.20;;;12.20;99.90;;;;;;5902263;24;20080;-88
2022/09/27 12:52:22;;;;;;;3.38;0.80;;;12.10;99.90;;;;;;6067524;23;20019;-90
2022/09/27 12:54:47;;;;;;;1.25;0.60;;;12.10;99.90;;;;;;6045093;23;20475;-89
2022/09/27 12:57:13;;;;;;;2.80;1.00;;;12.10;99.90;;;;;;6041914;23;20018;-87
2022/09/27 13:00:00;;;;;;;2.28;0.98;;;12.10;99.90;;;;;;6044358;23;20173;-89
2022/09/27 13:02:42;;;;;;;2.15;0.80;;;12.20;99.90;;;;;;6067959;23;20029;-89
2022/09/27 13:05:42;;;;;;;2.63;0.77;;;12.30;99.90;;;;;;6065818;23;20527;-88
2022/09/27 13:08:33;;;;;;;3.38;0.95;;;12.30;99.90;;;;;;6066004;23;20026;-87
2022/09/27 13:11:17;;;;;;;3.63;1.13;;;12.40;99.90;;;;;;6067848;23;20093;-88
2022/09/27 13:13:42;;;;;;;3.38;1.20;;;12.40;99.90;;;;;;6042746;23;20511;-89
2022/09/27 13:16:09;;;;;;;4.50;1.20;;;12.50;99.90;;;;;;6067051;23;20085;-88
2022/09/27 13:18:34;;;;;;;4.95;1.20;;;12.50;99.90;;;;;;6066933;23;20093;-88
2022/09/27 13:21:03;;;;;;;5.47;1.15;;;12.90;99.90;;;;;;6066241;23;20128;-88
2022/09/27 13:23:29;;;;;;;4.05;1.48;;;12.60;99.90;;;;;;6043233;23;20022;-88
2022/09/27 13:26:03;;;;;;;6.10;1.88;;;12.70;99.90;;;;;;6043845;23;20068;-88
2022/09/27 13:28:31;;;;;;;7.13;1.50;;;12.90;99.90;;;;;;6042056;23;20061;-88
2022/09/27 13:31:07;;;;;;;4.03;1.35;;;12.90;99.90;;;;;;6044272;23;20325;-88